Time;durP1;ratioP1;P1;durP2;ratioP2;P2;SDS_P1;SDS_P2;PMS_P1;PMS_P2;Temp;Humidity;BMP_temperature;BMP_pressure;BME280_temperature;BME280_humidity;BME280_pressure;Samples;Min_cycle;Max_cycle;Signal;HPM_P1;HPM_P2
2023/08/20 00:00:39;;;;;;;4.43;3.53;;;29.00;65.40;;;;;;5034963;28;20423;-80
2023/08/20 00:03:11;;;;;;;4.63;4.23;;;29.00;65.30;;;;;;5045998;28;20510;-80
2023/08/20 00:05:40;;;;;;;4.60;3.90;;;29.00;65.20;;;;;;5045223;28;20421;-80
2023/08/20 00:08:08;;;;;;;5.83;3.70;;;29.00;65.20;;;;;;5029865;28;20460;-80
2023/08/20 00:10:36;;;;;;;4.30;3.90;;;29.00;65.10;;;;;;5028047;28;20444;-81
2023/08/20 00:13:04;;;;;;;4.40;4.00;;;28.90;64.80;;;;;;5037973;28;20407;-78
2023/08/20 00:15:32;;;;;;;4.00;3.70;;;28.90;64.70;;;;;;5034276;28;20425;-78
2023/08/20 00:18:02;;;;;;;5.10;4.13;;;28.90;64.60;;;;;;5043296;28;20453;-79
2023/08/20 00:20:31;;;;;;;5.77;4.20;;;28.90;64.50;;;;;;5043076;28;20502;-78
2023/08/20 00:22:59;;;;;;;3.93;3.57;;;28.90;64.40;;;;;;5045435;28;20426;-78
2023/08/20 00:25:28;;;;;;;8.30;3.77;;;28.90;64.40;;;;;;5038958;28;20426;-78
2023/08/20 00:27:56;;;;;;;4.30;3.93;;;28.90;64.40;;;;;;5044099;28;20474;-78
2023/08/20 00:30:24;;;;;;;4.43;4.03;;;28.90;64.30;;;;;;5043285;28;20471;-79
2023/08/20 00:32:52;;;;;;;4.90;3.80;;;28.90;64.30;;;;;;5037815;28;20418;-79
2023/08/20 00:35:22;;;;;;;4.10;3.80;;;28.90;64.00;;;;;;5044002;28;20410;-79
2023/08/20 00:37:51;;;;;;;4.53;3.60;;;28.80;64.20;;;;;;5037018;28;20446;-79
2023/08/20 00:40:19;;;;;;;4.07;3.67;;;28.80;64.00;;;;;;5043111;28;20463;-79
2023/08/20 00:42:47;;;;;;;5.50;3.57;;;28.80;64.00;;;;;;5042069;28;20439;-78
2023/08/20 00:45:16;;;;;;;4.13;3.73;;;28.80;64.00;;;;;;5041513;28;20497;-79
2023/08/20 00:47:44;;;;;;;7.07;3.77;;;28.80;63.90;;;;;;5041380;28;20459;-79
2023/08/20 00:50:12;;;;;;;3.80;3.50;;;28.80;63.70;;;;;;5042723;28;20467;-79
2023/08/20 00:52:41;;;;;;;4.20;3.80;;;28.80;63.70;;;;;;5042616;28;20457;-79
2023/08/20 00:55:10;;;;;;;4.30;4.00;;;28.80;63.60;;;;;;5042265;28;20414;-79
2023/08/20 00:57:38;;;;;;;4.20;3.90;;;28.80;63.50;;;;;;5042454;28;20475;-80
2023/08/20 01:00:09;;;;;;;5.00;4.50;;;28.70;63.50;;;;;;5044287;28;20425;-80
2023/08/20 01:02:37;;;;;;;8.03;5.13;;;28.70;63.30;;;;;;5044465;28;20442;-79
2023/08/20 01:05:06;;;;;;;6.47;5.40;;;28.80;63.40;;;;;;5045168;28;20411;-79
2023/08/20 01:07:43;;;;;;;5.43;4.90;;;28.70;63.10;;;;;;5044718;28;20429;-79
2023/08/20 01:10:14;;;;;;;8.60;5.97;;;28.70;63.10;;;;;;5036922;28;20467;-80
2023/08/20 01:12:42;;;;;;;6.63;5.70;;;28.70;63.00;;;;;;5030545;28;20438;-80
2023/08/20 01:15:13;;;;;;;14.07;11.60;;;28.70;63.00;;;;;;5044952;28;20913;-80
2023/08/20 01:17:41;;;;;;;11.43;8.90;;;28.70;62.90;;;;;;5041278;28;20445;-78
2023/08/20 01:20:10;;;;;;;24.20;18.37;;;28.70;62.80;;;;;;5040316;28;20462;-78
2023/08/20 01:22:55;;;;;;;17.17;14.13;;;28.70;62.90;;;;;;5039779;28;20490;-78
2023/08/20 01:25:29;;;;;;;12.70;10.77;;;28.70;62.70;;;;;;5040182;28;20441;-79
2023/08/20 01:28:01;;;;;;;15.37;13.20;;;28.60;62.70;;;;;;5045051;28;20435;-79
2023/08/20 01:30:30;;;;;;;16.83;13.00;;;28.60;62.70;;;;;;5044936;28;20415;-79
2023/08/20 01:32:59;;;;;;;11.03;9.80;;;28.60;62.70;;;;;;5043775;28;20418;-80
2023/08/20 01:35:27;;;;;;;12.00;10.10;;;28.60;62.50;;;;;;5038493;28;20438;-78
2023/08/20 01:37:55;;;;;;;11.10;9.90;;;28.60;62.40;;;;;;5040122;28;20469;-79
2023/08/20 01:40:23;;;;;;;14.30;11.30;;;28.60;62.50;;;;;;5040503;28;20426;-79
2023/08/20 01:42:51;;;;;;;11.30;9.60;;;28.60;62.20;;;;;;5040058;28;20449;-79
2023/08/20 01:45:21;;;;;;;13.20;9.63;;;28.50;62.90;;;;;;5033238;28;20439;-78
2023/08/20 01:47:50;;;;;;;11.37;8.93;;;28.60;62.30;;;;;;5028255;28;20426;-78
2023/08/20 01:50:18;;;;;;;11.20;9.60;;;28.50;61.90;;;;;;5045242;28;20421;-79
2023/08/20 01:52:47;;;;;;;10.53;8.10;;;28.50;62.00;;;;;;5046014;28;20485;-79
2023/08/20 01:55:15;;;;;;;8.00;7.17;;;28.50;61.70;;;;;;5045287;28;20452;-80
2023/08/20 01:57:44;;;;;;;8.53;7.63;;;28.50;61.80;;;;;;5042755;28;20487;-79
2023/08/20 02:00:13;;;;;;;11.73;8.13;;;28.50;61.70;;;;;;5044246;28;20440;-79
2023/08/20 02:02:41;;;;;;;9.50;6.53;;;28.40;61.60;;;;;;5044533;28;20521;-79
2023/08/20 02:05:11;;;;;;;7.63;6.70;;;28.40;61.40;;;;;;5044448;28;20497;-79
2023/08/20 02:07:39;;;;;;;6.70;6.00;;;28.50;61.60;;;;;;5046859;28;20416;-79
2023/08/20 02:10:09;;;;;;;9.17;6.30;;;28.40;61.30;;;;;;5045329;28;20440;-78
2023/08/20 02:12:37;;;;;;;6.23;5.10;;;28.40;61.30;;;;;;5044167;28;20440;-79
2023/08/20 02:15:06;;;;;;;7.00;5.30;;;28.40;61.00;;;;;;5043264;28;20444;-78
2023/08/20 02:17:36;;;;;;;11.20;5.33;;;28.40;61.20;;;;;;5039084;28;20452;-78
2023/08/20 02:20:07;;;;;;;8.80;6.00;;;28.40;61.20;;;;;;5042899;28;20927;-79
2023/08/20 02:22:37;;;;;;;6.00;5.40;;;28.30;60.90;;;;;;5045027;28;20466;-78
2023/08/20 02:25:05;;;;;;;7.80;5.10;;;28.30;61.00;;;;;;5043468;28;20453;-79
2023/08/20 02:27:33;;;;;;;5.70;5.20;;;28.30;60.90;;;;;;5026411;28;20438;-78
2023/08/20 02:30:02;;;;;;;5.37;4.87;;;28.30;60.70;;;;;;5024880;28;20491;-79
2023/08/20 02:32:31;;;;;;;5.13;4.73;;;28.30;60.80;;;;;;5038496;28;20437;-79
2023/08/20 02:35:00;;;;;;;5.00;4.50;;;28.30;60.60;;;;;;5041840;28;20426;-76
2023/08/20 02:37:27;;;;;;;7.03;4.87;;;28.30;60.70;;;;;;5039871;28;20530;-78
2023/08/20 02:39:57;;;;;;;8.10;5.23;;;28.30;60.60;;;;;;5042176;28;20441;-79
2023/08/20 02:42:25;;;;;;;5.40;4.87;;;28.30;60.40;;;;;;5041982;28;20510;-79
2023/08/20 02:44:53;;;;;;;5.70;4.90;;;28.20;60.40;;;;;;5046088;28;20464;-79
2023/08/20 02:47:21;;;;;;;5.20;4.47;;;28.30;60.40;;;;;;5038524;28;20410;-79
2023/08/20 02:49:49;;;;;;;4.83;4.40;;;28.20;60.20;;;;;;5043327;28;20480;-79
2023/08/20 02:52:17;;;;;;;5.70;4.70;;;28.20;60.00;;;;;;5025723;28;20438;-78
2023/08/20 02:54:45;;;;;;;9.40;4.80;;;28.20;60.20;;;;;;5042816;28;20429;-79
2023/08/20 02:57:15;;;;;;;4.87;4.50;;;28.10;60.10;;;;;;5044428;28;20418;-79
2023/08/20 02:59:43;;;;;;;5.30;4.17;;;28.10;60.00;;;;;;5027253;28;20438;-79
2023/08/20 03:02:10;;;;;;;4.97;4.50;;;28.20;60.10;;;;;;5025021;28;20438;-79
2023/08/20 03:04:39;;;;;;;4.40;4.00;;;28.10;60.00;;;;;;5034051;28;20431;-79
2023/08/20 03:07:07;;;;;;;4.53;4.10;;;28.10;60.00;;;;;;5044255;28;20530;-79
2023/08/20 03:09:35;;;;;;;4.60;4.10;;;28.10;60.00;;;;;;5043834;28;20421;-78
2023/08/20 03:12:04;;;;;;;4.17;3.60;;;28.10;59.80;;;;;;5043438;28;20474;-78
2023/08/20 03:14:34;;;;;;;4.80;4.20;;;28.10;59.90;;;;;;5044660;28;20442;-78
2023/08/20 03:17:02;;;;;;;5.90;4.27;;;28.10;59.70;;;;;;5036324;28;20447;-79
2023/08/20 03:19:34;;;;;;;5.57;3.87;;;28.10;59.80;;;;;;5044254;28;20476;-77
2023/08/20 03:22:02;;;;;;;4.37;4.03;;;28.10;59.60;;;;;;5040293;28;20459;-79
2023/08/20 03:24:30;;;;;;;4.23;3.93;;;28.00;59.60;;;;;;5040174;28;20445;-78
2023/08/20 03:26:58;;;;;;;4.27;3.87;;;28.00;59.60;;;;;;5044160;28;20501;-78
2023/08/20 03:29:26;;;;;;;6.37;3.67;;;28.00;59.70;;;;;;5045538;28;20465;-77
2023/08/20 03:31:55;;;;;;;3.87;3.57;;;28.00;59.50;;;;;;5033860;28;20435;-78
2023/08/20 03:34:23;;;;;;;3.87;3.57;;;28.00;59.50;;;;;;5032463;28;20447;-79
2023/08/20 03:36:51;;;;;;;4.37;3.77;;;28.00;59.60;;;;;;5046605;28;20410;-79
2023/08/20 03:39:19;;;;;;;3.93;3.63;;;28.00;59.40;;;;;;5046107;28;20446;-79
2023/08/20 03:41:47;;;;;;;3.80;3.50;;;28.00;59.40;;;;;;5029788;28;20446;-79
2023/08/20 03:44:15;;;;;;;4.17;3.43;;;28.00;59.50;;;;;;5039257;28;20417;-79
2023/08/20 03:46:43;;;;;;;6.13;3.70;;;27.90;59.20;;;;;;5044830;28;20410;-79
2023/08/20 03:49:13;;;;;;;7.20;3.50;;;27.90;59.30;;;;;;5044016;28;20450;-79
2023/08/20 03:51:42;;;;;;;4.03;3.70;;;28.00;59.30;;;;;;5035891;28;20538;-78
2023/08/20 03:54:10;;;;;;;6.70;3.37;;;27.90;59.20;;;;;;5043666;28;20418;-79
2023/08/20 03:56:38;;;;;;;3.30;3.00;;;27.90;59.10;;;;;;5041864;28;20443;-79
2023/08/20 03:59:07;;;;;;;3.40;3.20;;;27.90;59.20;;;;;;5044374;28;20459;-80
2023/08/20 04:01:36;;;;;;;4.50;3.50;;;27.90;59.10;;;;;;5030017;28;20458;-80
2023/08/20 04:04:04;;;;;;;4.30;3.43;;;27.80;59.00;;;;;;5033699;28;20430;-80
2023/08/20 04:06:34;;;;;;;4.27;3.23;;;27.80;59.20;;;;;;5040970;28;20425;-80
2023/08/20 04:09:02;;;;;;;3.80;3.50;;;27.90;59.20;;;;;;5044064;28;20418;-81
2023/08/20 04:11:30;;;;;;;3.97;3.63;;;27.80;59.20;;;;;;5043887;28;20566;-81
2023/08/20 04:13:58;;;;;;;3.70;3.40;;;27.80;59.10;;;;;;5044536;28;20450;-81
2023/08/20 04:16:26;;;;;;;4.83;3.23;;;27.80;59.10;;;;;;5044528;28;20680;-81
2023/08/20 04:18:54;;;;;;;3.87;3.60;;;27.80;59.00;;;;;;5035484;28;20476;-80
2023/08/20 04:21:22;;;;;;;4.30;3.03;;;27.80;59.20;;;;;;5043359;28;20968;-81
2023/08/20 04:23:52;;;;;;;5.70;3.00;;;27.80;59.30;;;;;;5032538;28;20436;-80
2023/08/20 04:26:20;;;;;;;5.13;3.33;;;27.80;59.10;;;;;;5041320;28;20472;-80
2023/08/20 04:28:48;;;;;;;5.20;3.30;;;27.80;59.10;;;;;;5042051;28;20443;-80
2023/08/20 04:31:16;;;;;;;4.03;3.37;;;27.80;59.20;;;;;;5042602;28;20446;-80
2023/08/20 04:33:46;;;;;;;4.47;3.10;;;27.80;59.10;;;;;;5044631;28;20417;-81
2023/08/20 04:36:14;;;;;;;3.73;3.17;;;27.80;59.00;;;;;;5046430;28;20418;-82
2023/08/20 04:38:42;;;;;;;3.10;2.70;;;27.80;59.10;;;;;;5036780;28;20464;-83
2023/08/20 04:41:12;;;;;;;4.03;3.47;;;27.80;59.00;;;;;;5046085;28;20437;-82
2023/08/20 04:43:40;;;;;;;6.00;3.20;;;27.80;59.00;;;;;;5045971;28;20426;-83
2023/08/20 04:46:08;;;;;;;7.03;3.53;;;27.80;59.10;;;;;;5046212;28;20470;-82
2023/08/20 04:48:36;;;;;;;3.20;3.00;;;27.80;59.10;;;;;;5044334;28;20443;-82
2023/08/20 04:51:06;;;;;;;6.50;3.50;;;27.80;59.20;;;;;;5044114;28;20442;-81
2023/08/20 04:53:34;;;;;;;3.80;2.90;;;27.80;59.00;;;;;;5044980;28;20450;-82
2023/08/20 04:56:02;;;;;;;4.67;2.70;;;27.70;58.90;;;;;;5041844;28;20423;-80
2023/08/20 04:58:32;;;;;;;5.00;3.00;;;27.80;59.00;;;;;;5041309;28;20438;-81
2023/08/20 05:01:00;;;;;;;4.40;3.00;;;27.80;59.00;;;;;;5041514;28;20553;-81
2023/08/20 05:03:28;;;;;;;3.70;3.17;;;27.70;59.10;;;;;;5034759;28;20444;-79
2023/08/20 05:05:57;;;;;;;3.53;3.23;;;27.80;59.10;;;;;;5039611;28;20426;-83
2023/08/20 05:08:25;;;;;;;6.13;2.83;;;27.80;59.10;;;;;;5039556;28;20486;-79
2023/08/20 05:10:53;;;;;;;3.40;3.07;;;27.70;59.00;;;;;;5040373;28;20438;-81
2023/08/20 05:13:21;;;;;;;3.77;3.00;;;27.80;59.00;;;;;;5040757;28;20434;-80
2023/08/20 05:15:50;;;;;;;4.27;3.20;;;27.80;59.00;;;;;;5040304;28;20429;-80
2023/08/20 05:18:18;;;;;;;3.27;2.77;;;27.80;58.90;;;;;;5039581;28;20425;-80
2023/08/20 05:20:47;;;;;;;4.60;3.00;;;27.80;58.90;;;;;;5043262;28;20513;-80
2023/08/20 05:23:15;;;;;;;5.03;3.10;;;27.70;58.90;;;;;;5039421;28;20418;-80
2023/08/20 05:25:43;;;;;;;4.43;2.80;;;27.80;59.00;;;;;;5038327;28;20411;-80
2023/08/20 05:28:11;;;;;;;3.60;2.90;;;27.70;59.00;;;;;;5041903;28;20487;-80
2023/08/20 05:30:39;;;;;;;3.57;3.20;;;27.80;59.00;;;;;;5040713;28;20455;-80
2023/08/20 05:33:09;;;;;;;4.20;2.90;;;27.80;58.90;;;;;;5039277;28;20842;-80
2023/08/20 05:35:37;;;;;;;6.20;3.20;;;27.80;58.80;;;;;;5038712;28;20451;-81
2023/08/20 05:38:05;;;;;;;3.23;2.63;;;27.80;59.60;;;;;;5039778;28;20432;-80
2023/08/20 05:40:33;;;;;;;3.00;2.70;;;27.80;59.00;;;;;;5020674;28;20518;-79
2023/08/20 05:43:01;;;;;;;2.90;2.40;;;27.80;58.80;;;;;;5022616;28;20943;-81
2023/08/20 05:45:29;;;;;;;2.83;2.63;;;27.80;58.90;;;;;;5023030;28;20526;-81
2023/08/20 05:47:57;;;;;;;2.60;2.40;;;27.80;59.00;;;;;;5022300;28;20440;-80
2023/08/20 05:50:26;;;;;;;4.50;3.00;;;27.80;59.00;;;;;;5022177;28;21015;-80
2023/08/20 05:52:55;;;;;;;3.73;2.70;;;27.80;58.80;;;;;;5022943;28;20452;-80
2023/08/20 05:55:23;;;;;;;4.20;2.70;;;27.80;59.00;;;;;;5022106;28;20434;-80
2023/08/20 05:57:51;;;;;;;3.17;2.60;;;27.80;59.10;;;;;;5022513;28;20452;-80
2023/08/20 06:00:19;;;;;;;3.43;2.70;;;27.80;59.00;;;;;;5035668;28;20471;-80
2023/08/20 06:02:47;;;;;;;5.83;3.07;;;27.80;59.00;;;;;;5035717;28;20478;-81
2023/08/20 06:05:16;;;;;;;4.83;2.60;;;27.80;59.00;;;;;;5031963;28;20444;-81
2023/08/20 06:07:45;;;;;;;3.83;2.50;;;27.80;59.00;;;;;;5024582;28;20440;-80
2023/08/20 06:10:13;;;;;;;3.43;2.53;;;27.80;59.10;;;;;;5024830;28;20445;-80
2023/08/20 06:12:42;;;;;;;3.87;3.10;;;27.80;59.10;;;;;;5030276;28;20491;-80
2023/08/20 06:15:10;;;;;;;4.37;2.73;;;27.90;59.80;;;;;;5042515;28;20463;-80
2023/08/20 06:17:38;;;;;;;3.30;2.47;;;27.90;59.10;;;;;;5043496;28;20456;-82
2023/08/20 06:20:08;;;;;;;2.80;2.60;;;27.90;59.00;;;;;;5040069;28;20461;-81
2023/08/20 06:22:36;;;;;;;2.97;2.53;;;27.90;59.10;;;;;;5040471;28;20460;-81
2023/08/20 06:25:07;;;;;;;3.13;2.60;;;28.00;59.10;;;;;;5047833;28;20452;-81
2023/08/20 06:27:35;;;;;;;3.03;2.50;;;28.00;59.00;;;;;;5048180;28;20474;-81
2023/08/20 06:30:06;;;;;;;2.87;2.67;;;28.00;59.20;;;;;;5046647;28;20422;-81
2023/08/20 06:32:35;;;;;;;6.30;3.07;;;28.00;59.10;;;;;;5037941;28;20960;-80
2023/08/20 06:35:03;;;;;;;3.70;2.90;;;28.10;59.20;;;;;;5037315;28;20445;-80
2023/08/20 06:37:31;;;;;;;3.40;2.80;;;28.10;59.00;;;;;;5045894;28;20447;-80
2023/08/20 06:40:00;;;;;;;4.10;2.60;;;28.10;59.00;;;;;;5047198;28;20463;-81
2023/08/20 06:42:30;;;;;;;2.60;2.20;;;28.10;59.00;;;;;;5047300;28;20534;-81
2023/08/20 06:44:57;;;;;;;3.87;2.60;;;28.20;59.10;;;;;;5047962;28;20447;-82
2023/08/20 06:47:26;;;;;;;3.93;2.30;;;28.20;59.80;;;;;;5048385;28;20443;-81
2023/08/20 06:49:54;;;;;;;3.10;2.47;;;28.20;59.00;;;;;;5047050;28;20443;-82
2023/08/20 06:52:22;;;;;;;3.63;2.63;;;28.20;59.20;;;;;;5038994;28;20460;-82
2023/08/20 06:54:50;;;;;;;5.20;3.10;;;28.30;59.20;;;;;;5046612;28;20418;-81
2023/08/20 06:57:18;;;;;;;3.60;2.73;;;28.30;59.10;;;;;;5045346;28;20443;-81
2023/08/20 06:59:48;;;;;;;9.27;2.27;;;28.30;59.20;;;;;;5041960;28;20478;-80
2023/08/20 07:02:16;;;;;;;4.47;2.60;;;28.40;59.10;;;;;;5044954;28;20442;-80
2023/08/20 07:04:44;;;;;;;3.87;2.40;;;28.40;59.10;;;;;;5034748;28;20422;-81
2023/08/20 07:07:14;;;;;;;4.60;2.50;;;28.40;59.10;;;;;;5047511;28;20447;-79
2023/08/20 07:09:42;;;;;;;2.93;2.50;;;28.40;59.20;;;;;;5048202;28;20502;-81
2023/08/20 07:12:11;;;;;;;5.73;2.60;;;28.40;59.20;;;;;;5046144;28;20548;-80
2023/08/20 07:14:39;;;;;;;4.00;2.50;;;28.40;59.20;;;;;;5041672;28;20458;-81
2023/08/20 07:17:09;;;;;;;4.63;3.10;;;28.50;59.30;;;;;;5049088;28;20421;-82
2023/08/20 07:19:37;;;;;;;6.43;2.70;;;28.50;59.40;;;;;;5049158;28;20501;-81
2023/08/20 07:22:05;;;;;;;3.27;2.37;;;28.60;59.40;;;;;;5048883;28;20450;-81
2023/08/20 07:24:35;;;;;;;4.97;2.97;;;28.70;59.40;;;;;;5049271;28;20446;-80
2023/08/20 07:27:10;;;;;;;3.67;2.50;;;28.70;59.20;;;;;;5047624;28;20462;-81
2023/08/20 07:29:38;;;;;;;4.60;2.67;;;28.80;59.20;;;;;;5047687;28;20428;-82
2023/08/20 07:32:07;;;;;;;4.10;2.33;;;28.80;59.10;;;;;;5047570;28;20491;-81
2023/08/20 07:34:36;;;;;;;2.73;2.50;;;28.80;59.10;;;;;;5045094;28;20478;-81
2023/08/20 07:37:06;;;;;;;3.30;2.50;;;28.90;59.40;;;;;;5032364;28;20445;-81
2023/08/20 07:39:34;;;;;;;4.67;2.90;;;28.90;59.30;;;;;;5029279;28;20452;-81
2023/08/20 07:42:02;;;;;;;5.20;2.70;;;28.90;59.60;;;;;;5028387;28;20438;-81
2023/08/20 07:44:30;;;;;;;5.20;2.70;;;29.00;59.70;;;;;;5028577;28;20911;-80
2023/08/20 07:46:58;;;;;;;3.80;2.33;;;29.00;59.80;;;;;;5044214;28;20449;-80
2023/08/20 07:49:26;;;;;;;5.13;3.00;;;29.10;59.90;;;;;;5038467;28;20456;-81
2023/08/20 07:51:56;;;;;;;6.40;2.40;;;29.20;59.70;;;;;;5046441;28;20434;-81
2023/08/20 07:54:24;;;;;;;3.37;2.20;;;29.30;59.70;;;;;;5040185;28;20976;-81
2023/08/20 07:56:54;;;;;;;4.87;2.37;;;29.40;59.70;;;;;;5032848;28;20856;-79
2023/08/20 07:59:23;;;;;;;6.60;2.60;;;29.50;59.40;;;;;;5041867;28;20494;-80
2023/08/20 08:01:51;;;;;;;4.80;2.57;;;29.60;59.30;;;;;;5045665;28;20449;-79
2023/08/20 08:04:19;;;;;;;5.30;2.47;;;29.70;59.00;;;;;;5037708;28;20473;-80
2023/08/20 08:06:47;;;;;;;6.63;3.23;;;29.80;59.00;;;;;;5042476;28;20444;-80
2023/08/20 08:09:21;;;;;;;6.43;2.60;;;29.80;58.60;;;;;;5041417;28;20440;-80
2023/08/20 08:11:50;;;;;;;7.17;2.90;;;29.90;58.60;;;;;;5044209;28;20455;-80
2023/08/20 08:14:18;;;;;;;7.43;2.60;;;30.00;58.50;;;;;;5045632;28;20519;-80
2023/08/20 08:16:46;;;;;;;4.47;2.60;;;30.00;58.40;;;;;;5044866;28;20463;-80
2023/08/20 08:19:14;;;;;;;4.40;2.60;;;30.10;58.20;;;;;;5045922;28;20452;-81
2023/08/20 08:21:42;;;;;;;6.60;2.53;;;30.20;58.00;;;;;;5040690;28;20476;-81
2023/08/20 08:24:11;;;;;;;5.47;2.57;;;30.20;58.00;;;;;;5044393;28;20444;-81
2023/08/20 08:26:40;;;;;;;9.00;2.67;;;30.20;57.80;;;;;;5042127;28;20426;-80
2023/08/20 08:29:09;;;;;;;5.07;2.70;;;30.30;57.70;;;;;;5043593;28;20455;-80
2023/08/20 08:31:37;;;;;;;10.80;3.20;;;30.40;57.50;;;;;;5046025;28;20471;-80
2023/08/20 08:34:05;;;;;;;7.50;2.57;;;30.50;57.50;;;;;;5046520;28;20539;-80
2023/08/20 08:36:34;;;;;;;5.53;2.30;;;30.50;57.30;;;;;;5034962;28;20447;-81
2023/08/20 08:39:03;;;;;;;6.30;2.37;;;30.60;57.20;;;;;;5043080;28;20439;-77
2023/08/20 08:41:31;;;;;;;7.40;2.70;;;30.60;57.00;;;;;;5041940;28;20482;-81
2023/08/20 08:44:01;;;;;;;10.07;3.20;;;30.70;56.60;;;;;;5042580;28;20501;-77
2023/08/20 08:46:30;;;;;;;7.73;2.90;;;30.70;56.50;;;;;;5033383;28;20450;-80
2023/08/20 08:48:59;;;;;;;5.13;2.13;;;30.80;56.30;;;;;;5041226;28;20534;-78
2023/08/20 08:51:27;;;;;;;2.97;2.10;;;30.80;56.10;;;;;;5041117;28;20536;-79
2023/08/20 08:53:55;;;;;;;3.63;2.50;;;30.90;56.00;;;;;;5038710;28;20452;-79
2023/08/20 08:56:23;;;;;;;16.80;4.07;;;30.90;55.70;;;;;;5035569;28;20463;-78
2023/08/20 08:58:51;;;;;;;9.83;3.60;;;30.70;55.30;;;;;;5024512;28;20867;-81
2023/08/20 09:01:22;;;;;;;8.20;2.60;;;30.70;55.60;;;;;;5024008;28;20492;-82
2023/08/20 09:03:49;;;;;;;14.73;3.70;;;30.80;55.60;;;;;;5037247;28;20443;-81
2023/08/20 09:06:17;;;;;;;10.50;2.60;;;30.70;54.50;;;;;;5019612;28;20476;-79
2023/08/20 09:08:45;;;;;;;10.17;3.27;;;30.80;55.50;;;;;;5035767;28;20477;-85
2023/08/20 09:11:13;;;;;;;8.63;2.93;;;31.00;55.20;;;;;;5037876;28;20468;-77
2023/08/20 09:13:43;;;;;;;7.37;3.03;;;31.00;55.00;;;;;;5030758;28;20506;-80
2023/08/20 09:16:12;;;;;;;12.20;3.93;;;31.20;55.10;;;;;;5026399;28;20447;-78
2023/08/20 09:18:47;;;;;;;10.20;2.80;;;31.30;55.10;;;;;;5034508;28;20443;-79
2023/08/20 09:21:20;;;;;;;10.03;3.30;;;31.50;55.50;;;;;;5035093;28;20541;-82
2023/08/20 09:23:48;;;;;;;5.20;2.70;;;31.50;53.50;;;;;;5026139;28;20470;-80
2023/08/20 09:26:16;;;;;;;12.13;2.80;;;31.40;54.00;;;;;;5032010;28;20479;-81
2023/08/20 09:28:45;;;;;;;7.00;2.70;;;31.30;54.10;;;;;;5031286;28;20455;-82
2023/08/20 09:31:13;;;;;;;6.13;2.30;;;31.40;54.30;;;;;;5034204;28;20490;-78
2023/08/20 09:33:52;;;;;;;5.80;2.77;;;31.60;53.80;;;;;;5027355;28;20418;-82
2023/08/20 09:36:30;;;;;;;7.53;2.60;;;31.60;53.10;;;;;;5036348;28;20451;-78
2023/08/20 09:38:58;;;;;;;18.13;8.30;;;31.60;52.80;;;;;;5035472;28;20463;-78
2023/08/20 09:41:26;;;;;;;11.57;3.40;;;31.60;54.00;;;;;;5034797;28;20475;-80
2023/08/20 09:43:56;;;;;;;10.27;4.13;;;31.70;53.30;;;;;;5036693;28;20534;-81
2023/08/20 09:46:25;;;;;;;9.23;3.20;;;31.80;53.20;;;;;;5037412;28;20517;-80
2023/08/20 09:48:55;;;;;;;9.97;4.10;;;31.80;52.60;;;;;;5035021;28;20435;-82
2023/08/20 09:51:25;;;;;;;8.30;3.63;;;31.90;52.80;;;;;;5033528;28;20537;-80
2023/08/20 09:53:57;;;;;;;6.00;3.67;;;32.00;52.90;;;;;;5020550;28;20436;-81
2023/08/20 09:56:28;;;;;;;7.00;3.70;;;32.10;52.70;;;;;;5016480;28;20444;-84
2023/08/20 09:58:56;;;;;;;4.87;3.53;;;32.20;52.30;;;;;;5025381;28;20456;-82
2023/08/20 10:01:24;;;;;;;6.63;2.93;;;32.20;52.10;;;;;;5044887;28;20479;-85
2023/08/20 10:03:53;;;;;;;5.80;2.83;;;31.90;51.30;;;;;;5043422;28;20471;-85
2023/08/20 10:06:31;;;;;;;8.70;3.20;;;32.10;52.00;;;;;;5041561;28;20438;-81
2023/08/20 10:08:58;;;;;;;9.07;3.50;;;32.10;52.50;;;;;;5044770;28;20447;-80
2023/08/20 10:11:26;;;;;;;7.20;3.60;;;32.30;51.70;;;;;;5032437;28;20461;-80
2023/08/20 10:13:54;;;;;;;8.90;3.60;;;32.10;51.90;;;;;;5043882;28;20451;-80
2023/08/20 10:16:23;;;;;;;7.40;3.50;;;32.40;52.60;;;;;;5040959;28;20443;-80
2023/08/20 10:18:54;;;;;;;9.73;4.67;;;32.70;51.70;;;;;;5035621;28;20458;-80
2023/08/20 10:21:25;;;;;;;5.13;3.03;;;32.80;51.60;;;;;;5037405;28;20467;-80
2023/08/20 10:23:53;;;;;;;13.13;3.57;;;32.70;50.80;;;;;;5042358;28;20548;-81
2023/08/20 10:26:21;;;;;;;12.77;3.60;;;32.80;50.30;;;;;;5041913;28;21012;-81
2023/08/20 10:28:49;;;;;;;6.73;2.67;;;32.60;49.50;;;;;;5037325;28;20454;-79
2023/08/20 10:31:18;;;;;;;9.90;3.20;;;32.40;50.60;;;;;;5039750;28;20438;-82
2023/08/20 10:33:56;;;;;;;12.47;3.10;;;32.50;50.90;;;;;;5027566;28;20440;-78
2023/08/20 10:36:27;;;;;;;7.83;3.20;;;32.30;51.40;;;;;;5026720;28;20463;-79
2023/08/20 10:38:56;;;;;;;6.57;2.73;;;32.40;51.10;;;;;;5034279;28;20451;-79
2023/08/20 10:41:28;;;;;;;5.30;2.83;;;32.50;51.20;;;;;;5036031;28;20523;-80
2023/08/20 10:43:58;;;;;;;9.17;3.10;;;32.70;51.00;;;;;;5043686;28;20467;-83
2023/08/20 10:46:29;;;;;;;6.00;3.17;;;33.00;51.30;;;;;;5040560;28;20443;-79
2023/08/20 10:48:59;;;;;;;5.23;3.50;;;33.40;50.40;;;;;;5033188;28;20460;-81
2023/08/20 10:51:30;;;;;;;7.30;4.37;;;33.50;50.10;;;;;;5043533;28;20535;-79
2023/08/20 10:54:05;;;;;;;3.00;2.70;;;33.90;49.60;;;;;;5035056;28;20442;-80
2023/08/20 10:56:43;;;;;;;8.70;4.07;;;34.00;49.30;;;;;;5040487;28;20452;-80
2023/08/20 10:59:14;;;;;;;9.50;4.60;;;34.30;48.10;;;;;;5045574;28;20443;-80
2023/08/20 11:01:59;;;;;;;4.80;3.83;;;34.30;48.20;;;;;;5039111;28;20475;-80
2023/08/20 11:04:32;;;;;;;5.73;3.17;;;34.30;48.00;;;;;;5045552;28;20794;-80
2023/08/20 11:07:10;;;;;;;5.10;3.30;;;34.40;47.90;;;;;;5044623;28;20451;-80
2023/08/20 11:09:39;;;;;;;9.10;4.20;;;34.40;47.50;;;;;;5045512;28;20466;-80
2023/08/20 11:12:08;;;;;;;7.63;3.00;;;34.50;47.80;;;;;;5028716;28;20468;-80
2023/08/20 11:14:37;;;;;;;6.47;2.50;;;34.30;46.60;;;;;;5033949;28;20482;-79
2023/08/20 11:17:05;;;;;;;5.83;2.40;;;34.00;46.30;;;;;;5049088;28;20466;-80
2023/08/20 11:19:33;;;;;;;5.10;2.30;;;33.80;46.70;;;;;;5038069;28;20455;-80
2023/08/20 11:22:02;;;;;;;3.13;2.20;;;34.00;46.00;;;;;;5029731;28;20452;-80
2023/08/20 11:24:32;;;;;;;4.13;2.30;;;34.30;45.90;;;;;;5044690;28;20478;-80
2023/08/20 11:27:00;;;;;;;5.63;2.83;;;34.50;45.70;;;;;;5030692;28;20439;-80
2023/08/20 11:29:31;;;;;;;4.47;2.97;;;34.60;45.20;;;;;;5041289;28;20462;-80
2023/08/20 11:32:02;;;;;;;6.67;3.10;;;34.60;45.70;;;;;;5041582;28;20456;-80
2023/08/20 11:34:32;;;;;;;3.57;3.20;;;35.00;45.60;;;;;;5047716;28;20475;-80
2023/08/20 11:37:00;;;;;;;5.70;2.50;;;35.30;45.10;;;;;;5048720;28;20452;-80
2023/08/20 11:39:29;;;;;;;5.00;3.30;;;35.50;44.60;;;;;;5048530;28;20513;-80
2023/08/20 11:41:58;;;;;;;4.10;3.53;;;35.70;43.90;;;;;;5047958;28;20472;-79
2023/08/20 11:44:26;;;;;;;4.93;2.40;;;35.40;43.80;;;;;;5051057;28;20447;-80
2023/08/20 11:46:55;;;;;;;3.13;2.30;;;35.50;43.90;;;;;;5051658;28;20443;-80
2023/08/20 11:49:28;;;;;;;4.80;2.70;;;35.70;43.80;;;;;;5048443;28;20458;-80
2023/08/20 11:51:56;;;;;;;5.17;2.13;;;36.00;43.30;;;;;;5041577;28;20465;-80
2023/08/20 11:54:25;;;;;;;5.30;2.10;;;36.10;42.40;;;;;;5049174;28;20450;-80
2023/08/20 11:57:02;;;;;;;6.03;2.43;;;36.20;41.90;;;;;;5048798;28;20452;-80
2023/08/20 11:59:30;;;;;;;3.40;2.87;;;36.40;42.10;;;;;;5048209;28;20458;-78
2023/08/20 12:02:00;;;;;;;5.70;2.87;;;36.50;42.80;;;;;;5038398;28;20479;-79
2023/08/20 12:04:29;;;;;;;6.73;2.73;;;36.60;42.10;;;;;;5048159;28;20436;-80
2023/08/20 12:07:04;;;;;;;3.00;2.17;;;36.40;42.80;;;;;;5048171;28;20435;-79
2023/08/20 12:09:33;;;;;;;4.90;2.70;;;36.10;41.90;;;;;;5039126;28;20444;-79
2023/08/20 12:12:03;;;;;;;4.47;2.60;;;36.00;42.70;;;;;;5027914;28;20518;-79
2023/08/20 12:14:31;;;;;;;2.40;2.10;;;36.30;42.90;;;;;;5027545;28;20444;-79
2023/08/20 12:16:59;;;;;;;2.30;2.10;;;36.40;42.10;;;;;;5039610;28;20436;-79
2023/08/20 12:19:27;;;;;;;3.87;2.30;;;36.20;42.20;;;;;;5043675;28;20447;-80
2023/08/20 12:21:55;;;;;;;2.57;2.23;;;36.30;41.60;;;;;;5045970;28;20460;-80
2023/08/20 12:24:23;;;;;;;2.27;2.07;;;36.50;41.10;;;;;;5032532;28;20448;-80
2023/08/20 12:26:51;;;;;;;3.83;1.60;;;36.50;40.10;;;;;;5037814;28;20456;-79
2023/08/20 12:29:21;;;;;;;7.27;4.07;;;36.70;40.20;;;;;;5038208;28;20458;-79
2023/08/20 12:31:49;;;;;;;4.10;2.10;;;36.90;39.90;;;;;;5042227;28;20478;-80
2023/08/20 12:34:17;;;;;;;2.70;2.10;;;36.90;38.90;;;;;;5044484;28;20471;-80
2023/08/20 12:36:45;;;;;;;7.73;1.97;;;37.00;39.60;;;;;;5037391;28;20449;-81
2023/08/20 12:39:14;;;;;;;4.50;2.23;;;37.10;38.50;;;;;;5041658;28;20448;-81
2023/08/20 12:41:42;;;;;;;2.93;2.10;;;36.80;39.00;;;;;;5032286;28;20468;-79
2023/08/20 12:44:10;;;;;;;5.20;2.53;;;36.80;38.00;;;;;;5031508;28;20443;-79
2023/08/20 12:46:40;;;;;;;2.00;1.70;;;36.90;37.70;;;;;;5045484;28;20447;-79
2023/08/20 12:49:11;;;;;;;2.77;2.07;;;36.90;37.60;;;;;;5045305;28;20464;-84
2023/08/20 12:51:43;;;;;;;2.20;2.03;;;37.00;37.70;;;;;;5042701;28;20475;-82
2023/08/20 12:54:11;;;;;;;6.00;1.77;;;37.10;37.60;;;;;;5040898;28;20471;-79